Time;durP1;ratioP1;P1;durP2;ratioP2;P2;SDS_P1;SDS_P2;PMS_P1;PMS_P2;Temp;Humidity;BMP_temperature;BMP_pressure;BME280_temperature;BME280_humidity;BME280_pressure;Samples;Min_cycle;Max_cycle;Signal;HPM_P1;HPM_P2
2023/07/10 00:01:25;;;;;;;5.97;4.82;;;22.60;99.90;;;;;;5015733;28;20409;-85
2023/07/10 00:03:50;;;;;;;4.93;4.43;;;22.60;99.90;;;;;;5066004;22;20497;-80
2023/07/10 00:06:17;;;;;;;4.90;4.38;;;22.50;99.90;;;;;;5072366;28;20379;-79
2023/07/10 00:08:43;;;;;;;5.30;4.80;;;22.50;99.90;;;;;;5053660;28;20803;-80
2023/07/10 00:11:28;;;;;;;5.18;4.50;;;22.70;99.90;;;;;;5057072;28;20390;-79
2023/07/10 00:13:55;;;;;;;5.23;4.73;;;22.70;99.90;;;;;;5055034;28;20388;-79
2023/07/10 00:16:21;;;;;;;6.15;4.30;;;22.70;99.90;;;;;;5067203;28;20423;-79
2023/07/10 00:18:47;;;;;;;5.93;4.93;;;22.60;99.90;;;;;;5075249;28;20486;-79
2023/07/10 00:21:13;;;;;;;6.90;4.60;;;22.60;99.90;;;;;;5075152;28;20403;-79
2023/07/10 00:23:39;;;;;;;5.35;4.60;;;22.60;99.90;;;;;;5074527;28;20552;-79
2023/07/10 00:26:24;;;;;;;6.45;4.70;;;22.60;99.90;;;;;;5047975;28;20424;-79
2023/07/10 00:28:55;;;;;;;5.20;4.35;;;23.10;99.90;;;;;;5068192;28;20861;-79
2023/07/10 00:31:21;;;;;;;8.45;4.90;;;23.30;99.90;;;;;;5046877;28;20816;-78
2023/07/10 00:33:47;;;;;;;6.32;4.57;;;23.30;99.90;;;;;;5053504;28;20415;-80
2023/07/10 00:36:29;;;;;;;5.43;4.47;;;23.40;99.90;;;;;;5054126;28;20460;-80
2023/07/10 00:38:55;;;;;;;4.88;4.40;;;23.30;99.90;;;;;;5054869;28;20736;-80
2023/07/10 00:41:28;;;;;;;5.40;4.38;;;23.50;99.90;;;;;;5053793;28;20466;-80
2023/07/10 00:44:00;;;;;;;5.72;4.50;;;23.30;99.90;;;;;;5070657;28;20885;-80
2023/07/10 00:46:37;;;;;;;7.25;4.78;;;23.10;99.90;;;;;;5074477;28;20383;-80
2023/07/10 00:49:08;;;;;;;6.65;5.35;;;23.10;99.90;;;;;;5074526;28;20893;-80
2023/07/10 00:51:54;;;;;;;5.75;4.60;;;23.20;99.90;;;;;;5075085;28;20396;-80
2023/07/10 00:54:33;;;;;;;5.40;4.90;;;23.10;99.90;;;;;;5054767;28;20913;-80
2023/07/10 00:57:02;;;;;;;5.25;4.75;;;23.00;99.90;;;;;;5036905;28;20401;-80
2023/07/10 00:59:29;;;;;;;5.90;4.70;;;22.90;99.90;;;;;;5055800;28;20496;-80
2023/07/10 01:02:07;;;;;;;5.93;4.70;;;22.90;99.90;;;;;;5068579;28;20403;-80
2023/07/10 01:04:36;;;;;;;6.00;4.60;;;22.90;99.90;;;;;;5073828;28;20756;-80
2023/07/10 01:07:02;;;;;;;6.80;4.88;;;22.90;99.90;;;;;;5073749;28;20372;-80
2023/07/10 01:09:28;;;;;;;5.10;4.60;;;22.80;99.90;;;;;;5073964;28;20963;-80
2023/07/10 01:11:54;;;;;;;6.17;5.00;;;22.80;99.90;;;;;;5042953;28;20539;-80
2023/07/10 01:14:21;;;;;;;6.03;4.55;;;22.80;99.90;;;;;;5064544;28;20398;-79
2023/07/10 01:16:47;;;;;;;5.40;4.60;;;22.70;99.90;;;;;;5065744;28;20392;-79
2023/07/10 01:19:32;;;;;;;5.15;4.32;;;22.60;99.90;;;;;;5080149;28;20399;-80
2023/07/10 01:21:58;;;;;;;6.03;4.87;;;22.60;99.90;;;;;;5074834;28;20936;-80
2023/07/10 01:24:24;;;;;;;5.97;4.93;;;22.60;99.90;;;;;;5066519;28;20397;-80
2023/07/10 01:26:50;;;;;;;6.43;4.60;;;22.60;99.90;;;;;;5054777;28;20426;-80
2023/07/10 01:29:36;;;;;;;5.15;4.30;;;22.70;99.90;;;;;;5071407;28;20403;-80
2023/07/10 01:32:02;;;;;;;6.75;4.40;;;22.60;99.90;;;;;;5056544;28;20881;-80
2023/07/10 01:34:41;;;;;;;8.98;5.20;;;22.60;99.90;;;;;;5073998;28;20376;-80
2023/07/10 01:37:07;;;;;;;6.70;4.90;;;22.50;99.90;;;;;;5075760;28;20436;-80
2023/07/10 01:39:45;;;;;;;6.53;4.93;;;22.50;99.90;;;;;;5047888;28;20903;-80
2023/07/10 01:42:10;;;;;;;6.57;4.47;;;22.50;99.90;;;;;;5054984;28;20397;-80
2023/07/10 01:44:42;;;;;;;5.53;4.80;;;22.40;99.90;;;;;;5057113;28;20381;-80
2023/07/10 01:47:10;;;;;;;5.95;4.55;;;22.40;99.90;;;;;;5073779;28;20376;-80
2023/07/10 01:49:53;;;;;;;5.47;4.70;;;22.30;99.90;;;;;;5046674;28;20388;-80
2023/07/10 01:52:21;;;;;;;5.45;4.57;;;22.30;99.90;;;;;;5074294;28;20380;-80
2023/07/10 01:54:47;;;;;;;8.15;4.78;;;22.30;99.90;;;;;;5073786;28;20454;-80
2023/07/10 01:57:15;;;;;;;6.60;4.90;;;22.30;99.90;;;;;;5073946;28;20388;-80
2023/07/10 01:59:41;;;;;;;5.43;4.68;;;22.30;99.90;;;;;;5067748;28;20468;-80
2023/07/10 02:02:08;;;;;;;5.60;4.60;;;22.10;99.90;;;;;;5035734;28;20899;-80
2023/07/10 02:04:33;;;;;;;5.95;4.95;;;22.20;99.90;;;;;;5053568;28;20397;-80
2023/07/10 02:06:59;;;;;;;7.55;4.93;;;22.30;99.90;;;;;;5053640;28;20385;-80
2023/07/10 02:09:27;;;;;;;9.70;4.77;;;22.30;99.90;;;;;;5053026;28;20408;-80
2023/07/10 02:11:53;;;;;;;5.00;4.47;;;22.30;99.90;;;;;;5053908;28;20749;-80
2023/07/10 02:14:20;;;;;;;5.83;5.00;;;22.30;99.90;;;;;;5059736;28;20397;-79
2023/07/10 02:16:46;;;;;;;5.15;4.65;;;22.20;99.90;;;;;;5053642;28;20762;-80
2023/07/10 02:19:12;;;;;;;5.20;4.70;;;22.20;99.90;;;;;;5035434;28;20740;-79
2023/07/10 02:21:38;;;;;;;6.47;5.00;;;22.10;99.90;;;;;;5035154;28;20401;-79
2023/07/10 02:24:04;;;;;;;7.10;5.10;;;22.10;99.90;;;;;;5054919;28;20435;-79
2023/07/10 02:26:30;;;;;;;5.75;4.57;;;22.20;99.90;;;;;;5074891;28;20424;-79
2023/07/10 02:28:57;;;;;;;5.40;4.90;;;22.30;99.90;;;;;;5074948;28;21084;-79
2023/07/10 02:31:23;;;;;;;5.85;4.80;;;22.30;99.90;;;;;;5061830;28;20387;-79
2023/07/10 02:33:49;;;;;;;5.10;4.60;;;22.30;99.90;;;;;;5073273;28;20388;-79
2023/07/10 02:36:15;;;;;;;5.23;4.73;;;22.50;99.90;;;;;;5053738;28;20394;-80
2023/07/10 02:38:40;;;;;;;7.67;5.37;;;22.50;99.90;;;;;;5072513;28;20426;-80
2023/07/10 02:41:06;;;;;;;4.97;4.40;;;22.50;99.90;;;;;;5072511;28;20415;-79
2023/07/10 02:43:31;;;;;;;4.90;4.40;;;22.50;99.90;;;;;;5069342;28;20905;-79
2023/07/10 02:45:57;;;;;;;6.20;4.80;;;22.40;99.90;;;;;;5052043;28;20461;-80
2023/07/10 02:48:22;;;;;;;6.27;5.20;;;22.40;99.90;;;;;;5052356;28;20443;-79
2023/07/10 02:50:48;;;;;;;5.87;5.27;;;22.40;99.90;;;;;;5033905;28;20390;-79
2023/07/10 02:53:14;;;;;;;5.70;5.10;;;22.30;99.90;;;;;;5052043;28;20389;-79
2023/07/10 02:55:39;;;;;;;5.70;4.60;;;22.30;99.90;;;;;;5034339;28;20471;-79
2023/07/10 02:58:06;;;;;;;8.63;5.50;;;22.20;99.90;;;;;;5052252;28;20393;-80
2023/07/10 03:00:32;;;;;;;5.78;5.00;;;21.90;99.90;;;;;;5033741;28;20405;-79
2023/07/10 03:02:57;;;;;;;7.17;5.70;;;21.60;99.90;;;;;;5052230;28;20394;-80
2023/07/10 03:05:24;;;;;;;6.90;6.20;;;21.60;99.90;;;;;;5050435;28;20388;-80
2023/07/10 03:07:50;;;;;;;7.68;6.18;;;21.60;99.90;;;;;;5072159;28;20376;-80
2023/07/10 03:10:16;;;;;;;9.85;7.38;;;21.60;99.90;;;;;;5054018;28;20771;-78
2023/07/10 03:12:42;;;;;;;11.98;7.10;;;21.40;99.90;;;;;;5071955;28;20388;-79
2023/07/10 03:15:08;;;;;;;9.63;7.50;;;20.90;99.90;;;;;;5065184;28;20398;-79
2023/07/10 03:17:33;;;;;;;9.15;7.00;;;20.50;99.90;;;;;;5071647;28;20380;-79
2023/07/10 03:19:59;;;;;;;8.98;7.32;;;20.10;99.90;;;;;;5072138;28;20841;-79
2023/07/10 03:22:39;;;;;;;10.50;8.17;;;20.20;99.90;;;;;;5071509;28;20380;-81
2023/07/10 03:25:05;;;;;;;9.52;7.78;;;20.10;99.90;;;;;;5066642;28;20393;-79
2023/07/10 03:27:30;;;;;;;10.20;8.13;;;20.00;99.90;;;;;;5057595;28;20483;-79
2023/07/10 03:29:56;;;;;;;12.60;8.93;;;19.90;99.90;;;;;;5051133;28;20389;-79
2023/07/10 03:32:21;;;;;;;10.87;8.87;;;19.90;99.90;;;;;;5052571;28;20411;-79
2023/07/10 03:34:49;;;;;;;13.57;9.65;;;20.10;99.90;;;;;;5052947;28;20838;-79
2023/07/10 03:37:15;;;;;;;9.65;8.65;;;20.10;99.90;;;;;;5058787;28;20388;-79
2023/07/10 03:39:41;;;;;;;10.38;8.90;;;20.20;99.90;;;;;;5054259;28;20900;-79
2023/07/10 03:42:06;;;;;;;10.73;8.68;;;20.20;99.90;;;;;;5072965;28;20390;-79
2023/07/10 03:44:32;;;;;;;9.90;8.53;;;20.10;99.90;;;;;;5055198;28;20734;-79
2023/07/10 03:46:57;;;;;;;10.93;9.00;;;20.20;99.90;;;;;;5069412;28;20531;-79
2023/07/10 03:49:25;;;;;;;9.40;8.40;;;20.20;99.90;;;;;;5038521;28;20377;-79
2023/07/10 03:51:50;;;;;;;10.93;8.80;;;20.20;99.90;;;;;;5038651;28;20484;-79
2023/07/10 03:54:17;;;;;;;10.87;9.00;;;20.20;99.90;;;;;;5056120;28;20412;-79
2023/07/10 03:56:42;;;;;;;10.20;9.05;;;20.40;99.90;;;;;;5056866;28;20389;-79
2023/07/10 03:59:08;;;;;;;9.73;8.80;;;20.50;99.90;;;;;;5075837;28;20723;-79
2023/07/10 04:01:34;;;;;;;10.80;9.23;;;20.50;99.90;;;;;;5076110;28;20495;-79
2023/07/10 04:03:59;;;;;;;10.17;8.70;;;20.50;99.90;;;;;;5075860;28;20992;-79
2023/07/10 04:06:25;;;;;;;9.23;8.23;;;20.50;99.90;;;;;;5052446;28;20420;-79
2023/07/10 04:08:50;;;;;;;10.90;9.70;;;20.60;99.90;;;;;;5055662;28;20763;-79
2023/07/10 04:11:21;;;;;;;10.15;9.15;;;20.70;99.90;;;;;;5056260;28;20389;-79
2023/07/10 04:13:48;;;;;;;9.35;8.45;;;20.80;99.90;;;;;;5055938;28;20409;-79
2023/07/10 04:16:18;;;;;;;8.32;7.53;;;20.70;99.90;;;;;;5058587;28;20398;-79
2023/07/10 04:18:46;;;;;;;8.85;7.53;;;20.90;99.90;;;;;;5075929;28;20414;-79
2023/07/10 04:21:14;;;;;;;9.90;7.57;;;21.00;99.90;;;;;;5066713;28;20454;-80
2023/07/10 04:23:40;;;;;;;9.93;8.40;;;21.00;99.90;;;;;;5058116;28;20407;-79
2023/07/10 04:26:06;;;;;;;9.37;8.30;;;20.90;99.90;;;;;;5076276;28;20383;-80
2023/07/10 04:28:32;;;;;;;9.68;8.68;;;20.80;99.90;;;;;;5064282;28;20436;-79
2023/07/10 04:30:58;;;;;;;9.80;8.80;;;20.70;99.90;;;;;;5048213;28;20411;-79
2023/07/10 04:33:23;;;;;;;10.40;9.40;;;20.60;99.90;;;;;;5075514;28;20478;-79
2023/07/10 04:35:57;;;;;;;9.40;8.60;;;20.60;99.90;;;;;;5057270;28;20409;-79
2023/07/10 04:38:25;;;;;;;9.52;8.63;;;20.50;99.90;;;;;;5040027;28;20413;-78
2023/07/10 04:40:54;;;;;;;10.30;9.10;;;20.50;99.90;;;;;;5054815;28;20413;-79
2023/07/10 04:43:20;;;;;;;9.60;8.70;;;20.60;99.90;;;;;;5055371;28;20436;-79
2023/07/10 04:45:46;;;;;;;10.50;9.40;;;20.60;99.90;;;;;;5055337;28;20926;-79
2023/07/10 04:48:11;;;;;;;10.93;9.93;;;20.50;99.90;;;;;;5065904;28;20498;-79
2023/07/10 04:50:37;;;;;;;11.23;9.83;;;20.50;99.90;;;;;;5036769;28;20468;-79
2023/07/10 04:53:02;;;;;;;12.60;9.10;;;20.70;99.90;;;;;;5036674;28;20432;-79
2023/07/10 04:55:28;;;;;;;10.07;8.60;;;20.60;99.90;;;;;;5055103;28;20389;-79
2023/07/10 04:57:53;;;;;;;11.00;9.90;;;20.80;99.90;;;;;;5055084;28;20393;-78
2023/07/10 05:00:19;;;;;;;11.20;10.00;;;20.80;99.90;;;;;;5073697;28;20897;-79
2023/07/10 05:02:46;;;;;;;11.03;9.73;;;20.80;99.90;;;;;;5074265;28;21130;-79
2023/07/10 05:05:11;;;;;;;10.05;9.05;;;20.90;99.90;;;;;;5076676;28;20414;-78
2023/07/10 05:07:37;;;;;;;11.97;9.50;;;20.90;99.90;;;;;;5071141;28;20461;-79
2023/07/10 05:10:03;;;;;;;11.90;9.10;;;20.90;99.90;;;;;;5056753;28;20406;-79
2023/07/10 05:12:28;;;;;;;11.55;9.20;;;20.80;99.90;;;;;;5077266;28;20394;-79
2023/07/10 05:14:54;;;;;;;9.33;8.43;;;20.80;99.90;;;;;;5076010;28;20467;-79
2023/07/10 05:17:21;;;;;;;10.50;8.70;;;20.80;99.90;;;;;;5060810;28;20745;-77
2023/07/10 05:19:46;;;;;;;10.30;9.20;;;20.90;99.90;;;;;;5046760;28;20389;-78
2023/07/10 05:22:12;;;;;;;9.00;8.20;;;20.80;99.90;;;;;;5062159;28;20418;-79
2023/07/10 05:24:37;;;;;;;10.55;9.45;;;20.80;99.90;;;;;;5071784;28;20402;-80
2023/07/10 05:27:03;;;;;;;10.30;9.30;;;20.90;99.90;;;;;;5066622;28;20404;-80
2023/07/10 05:29:29;;;;;;;11.70;9.75;;;21.00;99.90;;;;;;5066982;28;20413;-79
2023/07/10 05:31:56;;;;;;;10.87;9.50;;;20.90;99.90;;;;;;5063976;28;20447;-79
2023/07/10 05:34:23;;;;;;;12.25;8.88;;;20.90;99.90;;;;;;5061075;28;20426;-79
2023/07/10 05:36:49;;;;;;;10.13;9.23;;;20.90;99.90;;;;;;5037877;28;20408;-79
2023/07/10 05:39:15;;;;;;;10.57;9.55;;;20.90;99.90;;;;;;5053241;28;20393;-79
2023/07/10 05:41:40;;;;;;;10.40;8.90;;;20.90;99.90;;;;;;5053556;28;20398;-79
2023/07/10 05:44:06;;;;;;;10.40;9.40;;;21.00;99.90;;;;;;5035658;28;20381;-79
2023/07/10 05:46:32;;;;;;;10.33;8.80;;;21.00;99.90;;;;;;5053695;28;20903;-79
2023/07/10 05:48:58;;;;;;;9.60;8.80;;;21.00;99.90;;;;;;5036101;28;20807;-79
2023/07/10 05:51:23;;;;;;;10.40;9.40;;;20.90;99.90;;;;;;5053832;28;20410;-79
2023/07/10 05:53:49;;;;;;;8.90;8.10;;;20.80;99.90;;;;;;5053171;28;20462;-79
2023/07/10 05:56:14;;;;;;;9.70;8.80;;;20.80;99.90;;;;;;5053033;28;20388;-79
2023/07/10 05:58:40;;;;;;;10.20;9.20;;;20.80;99.90;;;;;;5057376;28;20403;-79
2023/07/10 06:01:06;;;;;;;10.10;9.00;;;20.80;99.90;;;;;;5072548;28;20494;-79
2023/07/10 06:03:33;;;;;;;9.90;8.90;;;20.80;99.90;;;;;;5100737;22;20930;-83
2023/07/10 06:06:04;;;;;;;10.57;9.60;;;20.90;99.90;;;;;;5109664;28;20386;-84
2023/07/10 06:08:31;;;;;;;10.50;9.13;;;21.00;99.90;;;;;;5093595;28;20441;-83
2023/07/10 06:10:57;;;;;;;10.02;9.02;;;21.00;99.90;;;;;;5110382;28;20397;-82
2023/07/10 06:13:23;;;;;;;10.00;9.00;;;21.10;99.90;;;;;;5110968;28;20757;-83
2023/07/10 06:15:54;;;;;;;10.75;9.65;;;21.10;99.90;;;;;;5093840;28;20386;-83
2023/07/10 06:18:20;;;;;;;11.50;10.10;;;21.20;99.90;;;;;;5091168;28;20841;-83
2023/07/10 06:20:55;;;;;;;10.75;9.57;;;21.10;99.90;;;;;;5073369;28;20398;-83
2023/07/10 06:23:22;;;;;;;10.53;8.80;;;21.30;99.90;;;;;;5090348;28;20382;-84
2023/07/10 06:25:47;;;;;;;9.97;8.70;;;21.50;99.90;;;;;;5072541;28;20447;-83
2023/07/10 06:28:14;;;;;;;10.80;9.40;;;21.50;99.90;;;;;;5089315;28;20388;-85
2023/07/10 06:30:52;;;;;;;11.80;9.57;;;21.50;99.90;;;;;;5098146;28;20398;-84
2023/07/10 06:33:18;;;;;;;11.55;9.70;;;21.50;99.90;;;;;;5093149;28;20416;-84
2023/07/10 06:35:43;;;;;;;10.03;9.13;;;21.60;99.90;;;;;;5093935;28;20404;-85
2023/07/10 06:38:09;;;;;;;10.77;9.68;;;21.60;99.90;;;;;;5092659;28;20390;-84
2023/07/10 06:40:34;;;;;;;10.33;9.33;;;21.80;99.90;;;;;;5082840;28;20410;-84
2023/07/10 06:43:00;;;;;;;8.35;7.55;;;21.80;99.90;;;;;;5090923;28;20388;-84
2023/07/10 06:45:25;;;;;;;9.50;8.60;;;21.90;99.90;;;;;;5071494;28;20873;-82
2023/07/10 06:47:51;;;;;;;9.97;8.47;;;22.00;99.90;;;;;;5064430;28;20380;-83
2023/07/10 06:50:17;;;;;;;10.15;8.52;;;22.00;99.90;;;;;;5109795;28;20394;-82
2023/07/10 06:52:44;;;;;;;10.98;8.40;;;22.20;99.90;;;;;;5113876;28;20370;-83
2023/07/10 06:55:16;;;;;;;8.35;7.55;;;22.20;99.90;;;;;;5105337;28;20412;-83
2023/07/10 06:57:42;;;;;;;10.10;9.20;;;22.20;99.90;;;;;;5086085;28;20445;-83
2023/07/10 07:00:11;;;;;;;9.93;7.90;;;22.20;99.90;;;;;;5085436;28;20475;-83
2023/07/10 07:02:37;;;;;;;8.75;7.88;;;22.30;99.90;;;;;;5096849;28;20382;-83
2023/07/10 07:05:07;;;;;;;8.52;7.72;;;22.40;99.90;;;;;;5082034;28;20417;-83
2023/07/10 07:07:32;;;;;;;9.57;8.47;;;22.40;99.90;;;;;;5082604;28;20463;-83
2023/07/10 07:09:58;;;;;;;8.63;7.80;;;22.40;99.90;;;;;;5082351;28;20921;-83
2023/07/10 07:12:24;;;;;;;8.90;8.00;;;22.40;99.90;;;;;;5100488;28;20394;-83
2023/07/10 07:14:49;;;;;;;9.40;8.50;;;22.60;99.90;;;;;;5071233;28;20414;-83
2023/07/10 07:17:15;;;;;;;9.57;7.80;;;22.60;99.90;;;;;;5061746;28;20819;-83
2023/07/10 07:19:45;;;;;;;9.00;8.20;;;22.60;99.90;;;;;;5060098;28;20395;-83
2023/07/10 07:22:11;;;;;;;8.90;8.05;;;22.70;99.90;;;;;;5083861;28;20403;-82
2023/07/10 07:24:36;;;;;;;9.20;7.70;;;22.80;99.90;;;;;;5096290;28;20402;-83
2023/07/10 07:27:02;;;;;;;8.33;7.53;;;22.90;99.90;;;;;;5099787;28;20457;-82
2023/07/10 07:29:28;;;;;;;8.13;7.32;;;22.90;99.90;;;;;;5096493;28;20559;-83
2023/07/10 07:31:54;;;;;;;8.57;7.78;;;23.00;99.90;;;;;;5074210;28;20411;-83
2023/07/10 07:34:20;;;;;;;9.45;7.95;;;23.20;99.90;;;;;;5088829;28;20388;-83
2023/07/10 07:36:48;;;;;;;8.53;7.80;;;23.00;99.90;;;;;;5090677;28;20383;-83
2023/07/10 07:39:15;;;;;;;8.88;8.07;;;23.30;99.90;;;;;;5084700;28;20395;-83
2023/07/10 07:41:41;;;;;;;8.07;7.28;;;23.40;99.90;;;;;;5066622;28;20403;-83
2023/07/10 07:44:07;;;;;;;8.10;7.03;;;23.40;99.90;;;;;;5063214;28;20459;-83
2023/07/10 07:46:33;;;;;;;9.20;8.20;;;23.50;99.90;;;;;;5063387;28;20419;-83
2023/07/10 07:48:58;;;;;;;8.35;7.60;;;23.40;99.90;;;;;;5064134;28;20426;-83
2023/07/10 07:51:24;;;;;;;8.70;7.80;;;23.50;99.90;;;;;;5064643;28;20793;-83
2023/07/10 07:54:10;;;;;;;8.82;7.68;;;23.40;99.90;;;;;;5100120;28;20433;-84
2023/07/10 07:56:36;;;;;;;7.80;7.10;;;23.50;99.90;;;;;;5080833;28;20386;-83
2023/07/10 07:59:02;;;;;;;9.00;7.60;;;23.40;99.90;;;;;;5091505;28;20521;-84
2023/07/10 08:01:27;;;;;;;8.20;7.30;;;23.60;99.90;;;;;;5059988;28;20433;-83
2023/07/10 08:03:53;;;;;;;7.63;6.93;;;23.70;99.90;;;;;;5077504;28;20396;-84
2023/07/10 08:06:19;;;;;;;9.37;7.03;;;23.70;99.90;;;;;;5060540;28;20437;-83
2023/07/10 08:08:45;;;;;;;8.07;7.18;;;23.80;99.90;;;;;;5062289;28;20416;-83
2023/07/10 08:11:11;;;;;;;9.17;7.00;;;23.70;99.90;;;;;;5059784;28;20909;-84
2023/07/10 08:13:37;;;;;;;7.55;6.90;;;23.80;99.90;;;;;;5059696;28;20398;-84
2023/07/10 08:16:02;;;;;;;8.30;7.50;;;23.90;99.90;;;;;;5059625;28;20399;-84
2023/07/10 08:18:28;;;;;;;8.73;7.00;;;24.10;99.90;;;;;;5059487;28;20391;-84
2023/07/10 08:21:08;;;;;;;7.60;7.00;;;24.20;99.90;;;;;;5074526;28;20501;-84
2023/07/10 08:23:34;;;;;;;8.02;6.50;;;24.20;99.90;;;;;;5098020;28;20382;-83
2023/07/10 08:26:00;;;;;;;7.25;6.45;;;24.30;99.90;;;;;;5078602;28;20394;-84
2023/07/10 08:28:26;;;;;;;6.45;5.63;;;24.50;99.90;;;;;;5093747;28;20929;-84
2023/07/10 08:30:52;;;;;;;6.40;5.90;;;24.60;99.90;;;;;;5078892;28;20458;-84
2023/07/10 08:33:18;;;;;;;6.72;6.10;;;24.80;99.90;;;;;;5078931;28;20977;-84
2023/07/10 08:35:43;;;;;;;7.20;5.93;;;24.90;99.90;;;;;;5100251;28;20382;-84
2023/07/10 08:38:09;;;;;;;7.30;6.10;;;25.10;99.90;;;;;;5076385;28;20403;-85
2023/07/10 08:40:41;;;;;;;6.87;5.20;;;25.00;99.90;;;;;;5057160;28;20912;-84
2023/07/10 08:43:19;;;;;;;6.38;4.80;;;25.10;99.90;;;;;;5091038;28;20397;-84
2023/07/10 08:45:47;;;;;;;5.03;4.53;;;25.40;99.90;;;;;;5099237;28;20415;-85
2023/07/10 08:48:21;;;;;;;5.00;4.50;;;25.40;99.90;;;;;;5099801;28;20401;-85
2023/07/10 08:50:47;;;;;;;5.43;4.80;;;25.40;99.90;;;;;;5081080;28;20397;-85
2023/07/10 08:53:19;;;;;;;5.10;4.70;;;25.40;99.90;;;;;;5067151;28;20433;-85
2023/07/10 08:55:56;;;;;;;5.37;4.87;;;25.40;99.90;;;;;;5059743;28;20386;-85
2023/07/10 08:58:27;;;;;;;6.03;5.43;;;25.60;99.90;;;;;;5078753;28;20391;-85
2023/07/10 09:00:58;;;;;;;4.70;4.30;;;25.60;99.90;;;;;;5040456;28;20401;-85
2023/07/10 09:03:40;;;;;;;6.45;4.70;;;25.70;99.90;;;;;;5038764;28;20393;-85
2023/07/10 09:06:16;;;;;;;6.33;5.00;;;25.90;99.90;;;;;;5056341;28;20468;-84
2023/07/10 09:08:43;;;;;;;6.60;4.43;;;25.90;99.90;;;;;;5045304;28;20445;-85
2023/07/10 09:11:18;;;;;;;4.82;4.30;;;26.00;99.90;;;;;;5087792;28;21789;-85
2023/07/10 09:13:53;;;;;;;5.22;4.82;;;26.10;99.90;;;;;;5099003;28;20404;-86
2023/07/10 09:16:21;;;;;;;5.53;4.80;;;26.20;99.90;;;;;;5061132;28;20402;-85
2023/07/10 09:19:05;;;;;;;4.85;4.35;;;26.20;99.90;;;;;;5087672;28;20394;-85
2023/07/10 09:21:32;;;;;;;5.32;4.25;;;26.20;99.90;;;;;;5094517;28;20410;-85
2023/07/10 09:23:58;;;;;;;5.35;4.85;;;26.20;99.90;;;;;;5077149;28;20464;-84
2023/07/10 09:26:38;;;;;;;5.70;4.47;;;26.20;99.90;;;;;;5057912;28;20401;-85
2023/07/10 09:29:09;;;;;;;4.90;4.50;;;26.50;99.90;;;;;;5056786;28;20940;-85
2023/07/10 09:32:13;;;;;;;4.80;4.40;;;26.50;99.90;;;;;;5056312;28;20426;-85
2023/07/10 09:34:47;;;;;;;5.60;5.00;;;26.50;99.90;;;;;;5056306;28;20395;-85
2023/07/10 09:37:16;;;;;;;4.90;4.50;;;26.60;99.90;;;;;;5078049;28;20413;-85
2023/07/10 09:39:42;;;;;;;5.07;4.57;;;26.60;99.90;;;;;;5074709;28;20750;-86
2023/07/10 09:42:18;;;;;;;4.80;4.40;;;26.90;99.90;;;;;;5058631;28;20486;-85
2023/07/10 09:44:53;;;;;;;5.45;4.90;;;27.00;99.90;;;;;;5057810;28;20481;-84
2023/07/10 09:47:20;;;;;;;5.50;4.40;;;27.20;99.90;;;;;;5080257;28;20437;-86
2023/07/10 09:49:56;;;;;;;5.18;4.68;;;27.30;99.90;;;;;;5095004;28;20390;-85
2023/07/10 09:52:37;;;;;;;4.55;4.15;;;27.40;99.90;;;;;;5038441;28;20402;-85
2023/07/10 09:55:15;;;;;;;4.68;4.28;;;27.30;99.90;;;;;;5040084;28;20399;-86
2023/07/10 09:58:02;;;;;;;5.78;4.70;;;27.40;99.90;;;;;;5039848;28;20393;-85
2023/07/10 10:00:29;;;;;;;4.82;4.40;;;27.50;99.90;;;;;;5064500;28;20417;-85
2023/07/10 10:03:09;;;;;;;6.43;4.72;;;27.50;99.90;;;;;;5082266;28;20906;-85
2023/07/10 10:05:40;;;;;;;7.22;4.47;;;27.40;99.90;;;;;;5072544;28;20511;-85
2023/07/10 10:08:18;;;;;;;4.70;4.20;;;27.60;99.90;;;;;;5061053;28;20380;-85
2023/07/10 10:10:44;;;;;;;5.90;4.10;;;27.60;99.90;;;;;;5080652;28;20443;-85
2023/07/10 10:13:27;;;;;;;5.10;4.60;;;27.80;99.90;;;;;;5081290;28;20422;-86
2023/07/10 10:16:23;;;;;;;5.60;5.10;;;28.00;99.90;;;;;;5072467;28;20461;-85
2023/07/10 10:19:20;;;;;;;5.73;4.73;;;27.90;99.90;;;;;;5099960;28;20378;-85
2023/07/10 10:21:46;;;;;;;6.30;5.05;;;27.80;99.90;;;;;;5058933;28;20812;-85
2023/07/10 10:24:13;;;;;;;5.00;4.50;;;27.90;99.90;;;;;;5061348;28;20391;-85
2023/07/10 10:26:57;;;;;;;5.43;4.32;;;27.80;99.90;;;;;;5080041;28;20383;-84
2023/07/10 10:29:44;;;;;;;6.18;5.00;;;28.20;99.90;;;;;;5061451;28;20396;-84
2023/07/10 10:32:31;;;;;;;5.25;4.75;;;28.30;99.90;;;;;;5063160;28;20403;-85
2023/07/10 10:35:22;;;;;;;5.33;4.83;;;28.20;99.90;;;;;;5061743;28;20419;-85
2023/07/10 10:38:18;;;;;;;5.40;4.68;;;28.20;99.90;;;;;;5063171;28;20391;-85
2023/07/10 10:40:50;;;;;;;5.20;4.68;;;28.00;99.90;;;;;;5082888;28;20427;-84
2023/07/10 10:43:37;;;;;;;5.15;4.65;;;28.60;99.90;;;;;;5085382;28;20439;-84
2023/07/10 10:46:14;;;;;;;4.90;4.40;;;28.30;99.90;;;;;;5092362;28;20382;-85
2023/07/10 10:48:53;;;;;;;5.70;4.70;;;28.30;99.90;;;;;;5077021;28;20724;-84
2023/07/10 10:51:40;;;;;;;4.90;4.40;;;28.40;99.90;;;;;;5057354;28;20384;-85
2023/07/10 10:54:23;;;;;;;5.57;4.63;;;28.60;99.90;;;;;;5056582;28;20759;-84
2023/07/10 10:57:20;;;;;;;5.95;4.35;;;28.70;99.90;;;;;;5056114;28;20388;-84
2023/07/10 11:00:07;;;;;;;5.15;4.43;;;28.70;99.90;;;;;;5066657;28;20386;-85
2023/07/10 11:02:36;;;;;;;4.68;4.28;;;28.70;99.90;;;;;;5077776;28;20400;-84
2023/07/10 11:05:20;;;;;;;4.97;4.50;;;28.90;99.90;;;;;;5077181;28;20397;-85
2023/07/10 11:07:51;;;;;;;5.30;4.03;;;28.80;99.90;;;;;;5067901;28;20391;-84
2023/07/10 11:10:25;;;;;;;4.53;4.13;;;29.00;99.90;;;;;;5056210;28;20723;-85
2023/07/10 11:12:50;;;;;;;4.90;4.45;;;29.10;99.90;;;;;;5055247;28;20395;-85
2023/07/10 11:15:22;;;;;;;4.53;4.10;;;29.20;99.90;;;;;;5054852;28;20881;-84
2023/07/10 11:17:53;;;;;;;4.82;4.32;;;29.10;99.90;;;;;;5056237;28;20419;-84
2023/07/10 11:20:20;;;;;;;5.00;4.50;;;29.20;99.90;;;;;;5055020;28;20403;-85
2023/07/10 11:23:01;;;;;;;5.22;4.72;;;29.20;99.90;;;;;;5063683;28;20394;-85
2023/07/10 11:25:37;;;;;;;5.40;4.40;;;29.20;99.90;;;;;;5077513;28;20430;-84
2023/07/10 11:28:27;;;;;;;4.97;4.55;;;29.50;99.90;;;;;;5068261;28;20964;-84
2023/07/10 11:31:30;;;;;;;5.20;4.45;;;29.60;99.90;;;;;;5062304;28;20400;-84
2023/07/10 11:34:05;;;;;;;4.45;4.05;;;29.30;99.90;;;;;;5081117;28;20388;-84
2023/07/10 11:36:33;;;;;;;5.80;4.80;;;29.90;99.90;;;;;;5099331;28;20458;-85
2023/07/10 11:39:11;;;;;;;5.07;4.68;;;29.40;99.90;;;;;;5083333;28;20439;-85
2023/07/10 11:41:42;;;;;;;5.28;4.78;;;29.10;99.90;;;;;;5091905;28;20522;-84
2023/07/10 11:44:14;;;;;;;7.00;4.70;;;29.30;99.90;;;;;;5064210;28;20427;-85
2023/07/10 11:47:04;;;;;;;5.50;4.57;;;29.90;99.90;;;;;;5078905;28;20470;-85
2023/07/10 11:49:45;;;;;;;4.95;4.45;;;30.20;99.90;;;;;;5102417;28;20430;-85
2023/07/10 11:52:13;;;;;;;5.47;4.97;;;30.20;99.90;;;;;;5070448;28;20395;-85
2023/07/10 11:54:45;;;;;;;5.60;4.20;;;30.10;99.90;;;;;;5056278;28;20418;-84
2023/07/10 11:57:24;;;;;;;4.80;4.40;;;31.30;99.90;;;;;;5058756;28;20425;-85
2023/07/10 11:59:57;;;;;;;4.70;4.30;;;31.20;99.90;;;;;;5056061;28;20752;-84
2023/07/10 12:02:31;;;;;;;5.10;4.07;;;31.70;99.90;;;;;;5058195;28;20400;-85
2023/07/10 12:05:30;;;;;;;4.07;3.67;;;31.90;99.90;;;;;;5088770;22;20427;-86
2023/07/10 12:08:08;;;;;;;5.10;4.70;;;32.40;31.10;;;;;;5053656;28;20391;-83
2023/07/10 12:10:45;;;;;;;4.00;3.60;;;32.00;1.00;;;;;;5074848;28;20392;-86
2023/07/10 12:13:31;;;;;;;4.80;4.40;;;32.20;1.00;;;;;;5056664;28;20383;-87
2023/07/10 12:16:08;;;;;;;4.63;4.22;;;32.50;1.00;;;;;;5074922;28;20404;-87
2023/07/10 12:18:37;;;;;;;4.78;4.30;;;32.30;1.00;;;;;;5056462;28;20463;-86
2023/07/10 12:21:11;;;;;;;5.60;4.10;;;32.30;1.00;;;;;;5056737;28;20403;-86
2023/07/10 12:23:37;;;;;;;4.60;3.90;;;32.70;1.00;;;;;;5056551;28;20387;-86
2023/07/10 12:26:05;;;;;;;4.50;4.18;;;32.40;1.00;;;;;;5054950;28;20510;-86
2023/07/10 12:28:30;;;;;;;4.70;4.23;;;32.50;1.00;;;;;;5050797;28;20441;-87
2023/07/10 12:30:58;;;;;;;4.70;4.20;;;32.60;1.00;;;;;;5047862;28;20400;-86
2023/07/10 12:33:35;;;;;;;4.30;3.90;;;32.20;1.00;;;;;;5050839;28;20400;-87
2023/07/10 12:36:04;;;;;;;4.90;4.50;;;32.20;1.00;;;;;;5051029;28;20423;-88
2023/07/10 12:38:31;;;;;;;5.35;4.30;;;32.10;1.00;;;;;;5052105;28;20397;-89
2023/07/10 12:40:57;;;;;;;4.28;3.88;;;32.20;1.00;;;;;;5051511;28;20458;-88
2023/07/10 12:43:25;;;;;;;6.07;4.40;;;32.60;1.00;;;;;;5072168;28;20404;-88
2023/07/10 12:46:11;;;;;;;4.65;4.20;;;32.80;1.00;;;;;;5046749;28;20388;-88
2023/07/10 12:48:36;;;;;;;4.50;4.20;;;33.00;1.00;;;;;;5052793;28;20448;-87
2023/07/10 12:51:05;;;;;;;4.90;4.47;;;32.50;1.00;;;;;;5067532;28;20387;-88
2023/07/10 12:53:37;;;;;;;4.75;4.35;;;32.90;1.00;;;;;;5053867;28;20389;-88
2023/07/10 12:56:26;;;;;;;4.30;3.90;;;32.60;1.00;;;;;;5053324;28;20421;-89
2023/07/10 12:58:54;;;;;;;4.78;4.28;;;32.60;1.00;;;;;;5055154;28;20387;-89
2023/07/10 13:01:27;;;;;;;5.22;4.50;;;32.00;1.00;;;;;;5058969;28;20829;-90